Dover, Oregon
Current Conditions -  °F | °C
As of 7:53 AM on Wednesday 22 Oct 2014 (Local Time) from KTTD Reporting Station
Light Rain Light Rain  
Wind Chill: 55°   Ceiling: 4700
Heat Index: 55°   Visibility: 10mi
Dew Point: 52°   Wind: 9mph
Humidity: 89%   Direction: 70°ENE
Pressure: 29.78"   Gusts: NA
Location:  45.3467°N, 122.335°W
Report Text: KTTD 221453Z 07008KT 10SM -RA SCT037 OVC047 13/11 A2978 RMK AO2 SLP084 P0001 60001 T01280111 58001
Loading
Personal Weather Stations






























Interactive Weather Map
Tropical Storm Tracking
New forecast layout! Learn more

10-Day Weather Forecast

Advertisements
Track Severe Weather on mobile